Anderson, Nebraska
Current Conditions -  °F | °C
As of 5:55 PM on Friday 24 Oct 2014 (Local Time) from KHDE Reporting Station
Clear Clear  
Wind Chill: 81°   Ceiling: Unl
Heat Index: 81°   Visibility: 10mi
Dew Point: 33°   Wind: 0mph
Humidity: 17%   Direction: NA
Pressure: 29.97"   Gusts: NA
Location:  40.5251°N, 99.2414°W
Report Text: KHDE 242255Z AUTO 00000KT 10SM CLR 27/00 A2997 RMK AO2 T02730004
Loading
Personal Weather Stations






























Interactive Weather Map
Tropical Storm Tracking
New forecast layout! Learn more

10-Day Weather Forecast

Advertisements
Track Severe Weather on mobile